createdAt,value
2022-07-27T00:00:09.250Z,18.41
2022-07-27T00:01:09.280Z,18.41
2022-07-27T00:02:09.190Z,18.40
2022-07-27T00:03:09.191Z,18.41
2022-07-27T00:04:09.228Z,18.41
2022-07-27T00:05:09.173Z,18.43
2022-07-27T00:06:09.141Z,18.41
2022-07-27T00:07:09.133Z,18.41
2022-07-27T00:08:09.121Z,18.40
2022-07-27T00:09:09.439Z,18.38
2022-07-27T00:10:09.114Z,18.37
2022-07-27T00:11:09.084Z,18.37
2022-07-27T00:12:09.085Z,18.37
2022-07-27T00:13:09.072Z,18.37
2022-07-27T00:14:09.060Z,18.35
2022-07-27T00:15:09.042Z,18.33
2022-07-27T00:16:09.110Z,18.31
2022-07-27T00:17:09.020Z,18.29
2022-07-27T00:18:09.018Z,18.28
2022-07-27T00:19:09.498Z,18.26
2022-07-27T00:20:08.983Z,18.22
2022-07-27T00:21:08.974Z,18.20
2022-07-27T00:22:08.987Z,18.18
2022-07-27T00:23:08.955Z,18.18
2022-07-27T00:24:08.943Z,18.18
2022-07-27T00:25:08.934Z,18.16
2022-07-27T00:26:08.916Z,18.16
2022-07-27T00:27:08.905Z,18.16
2022-07-27T00:28:08.904Z,18.13
2022-07-27T00:29:09.314Z,18.11
2022-07-27T00:30:08.884Z,18.11
2022-07-27T00:31:08.934Z,18.11
2022-07-27T00:32:12.565Z,18.11
2022-07-27T00:33:08.877Z,18.10
2022-07-27T00:34:08.826Z,18.10
2022-07-27T00:35:08.814Z,18.11
2022-07-27T00:36:08.803Z,18.08
2022-07-27T00:37:08.795Z,18.08
2022-07-27T00:38:08.788Z,18.07
2022-07-27T00:39:09.121Z,18.03
2022-07-27T00:40:08.755Z,18.04
2022-07-27T00:41:08.756Z,18.01
2022-07-27T00:42:08.739Z,18.01
2022-07-27T00:43:08.736Z,18.00
2022-07-27T00:44:08.715Z,18.01
2022-07-27T00:45:08.734Z,18.03
2022-07-27T00:46:08.696Z,18.03
2022-07-27T00:47:08.726Z,18.00
2022-07-27T00:48:08.677Z,18.00
2022-07-27T00:49:09.047Z,17.97
2022-07-27T00:50:08.644Z,17.94
2022-07-27T00:51:08.668Z,17.92
2022-07-27T00:52:08.630Z,17.92
2022-07-27T00:53:08.616Z,17.92
2022-07-27T00:54:08.598Z,17.94
2022-07-27T00:55:08.596Z,17.92
2022-07-27T00:56:08.589Z,17.94
2022-07-27T00:57:08.597Z,17.92
2022-07-27T00:58:08.563Z,17.94
2022-07-27T00:59:08.939Z,17.94
2022-07-27T01:00:08.538Z,17.94
2022-07-27T01:01:08.528Z,17.95
2022-07-27T01:02:11.846Z,17.92
2022-07-27T01:03:08.829Z,17.94
2022-07-27T01:04:08.488Z,17.94
2022-07-27T01:05:08.477Z,17.94
2022-07-27T01:06:08.479Z,17.95
2022-07-27T01:07:08.462Z,17.94
2022-07-27T01:08:08.448Z,17.94
2022-07-27T01:09:08.788Z,17.94
2022-07-27T01:10:08.417Z,17.94
2022-07-27T01:11:08.422Z,17.92
2022-07-27T01:12:08.400Z,17.90
2022-07-27T01:13:12.866Z,17.90
2022-07-27T01:14:08.426Z,17.86
2022-07-27T01:15:08.366Z,17.85
2022-07-27T01:16:08.402Z,17.83
2022-07-27T01:17:08.338Z,17.85
2022-07-27T01:18:08.330Z,17.83
2022-07-27T01:19:08.474Z,17.80
2022-07-27T01:20:08.352Z,17.82
2022-07-27T01:21:08.299Z,17.82
2022-07-27T01:22:08.291Z,17.83
2022-07-27T01:23:08.295Z,17.82
2022-07-27T01:24:08.261Z,17.80
2022-07-27T01:25:08.249Z,17.82
2022-07-27T01:26:08.263Z,17.80
2022-07-27T01:27:08.246Z,17.80
2022-07-27T01:28:08.218Z,17.80
2022-07-27T01:29:08.276Z,17.82
2022-07-27T01:30:08.192Z,17.82
2022-07-27T01:31:08.222Z,17.82
2022-07-27T01:32:08.190Z,17.82
2022-07-27T01:33:08.166Z,17.83
2022-07-27T01:34:08.151Z,17.82
2022-07-27T01:35:08.142Z,17.80
2022-07-27T01:36:08.119Z,17.79
2022-07-27T01:37:08.115Z,17.78
2022-07-27T01:38:08.130Z,17.74
2022-07-27T01:39:08.281Z,17.72
2022-07-27T01:40:08.079Z,17.72
2022-07-27T01:41:08.070Z,17.68
2022-07-27T01:42:08.053Z,17.65
2022-07-27T01:43:08.053Z,17.64
2022-07-27T01:44:08.060Z,17.63
2022-07-27T01:45:08.026Z,17.63
2022-07-27T01:46:08.091Z,17.63
2022-07-27T01:47:14.418Z,17.60
2022-07-27T01:48:08.992Z,17.60
2022-07-27T01:49:08.117Z,17.63
2022-07-27T01:50:07.987Z,17.60
2022-07-27T01:51:07.961Z,17.63
2022-07-27T01:52:07.952Z,17.60
2022-07-27T01:53:09.240Z,17.60
2022-07-27T01:54:07.941Z,17.63
2022-07-27T01:55:07.931Z,17.60
2022-07-27T01:56:07.907Z,17.63
2022-07-27T01:57:07.894Z,17.63
2022-07-27T01:58:07.881Z,17.64
2022-07-27T01:59:07.995Z,17.64
2022-07-27T02:00:08.881Z,17.63
2022-07-27T02:01:07.987Z,17.63
2022-07-27T02:02:07.973Z,17.64
2022-07-27T02:03:07.818Z,17.63
2022-07-27T02:04:07.823Z,17.60
2022-07-27T02:05:07.841Z,17.59
2022-07-27T02:06:07.802Z,17.60
2022-07-27T02:07:07.775Z,17.60
2022-07-27T02:08:07.771Z,17.60
2022-07-27T02:09:07.876Z,17.59
2022-07-27T02:10:07.749Z,17.60
2022-07-27T02:11:07.724Z,17.59
2022-07-27T02:12:07.747Z,17.59
2022-07-27T02:13:22.492Z,17.56
2022-07-27T02:14:08.696Z,17.56
2022-07-27T02:15:07.686Z,17.54
2022-07-27T02:16:16.684Z,17.52
2022-07-27T02:17:08.677Z,17.51
2022-07-27T02:18:26.650Z,17.49
2022-07-27T02:19:08.714Z,17.48
2022-07-27T02:20:07.629Z,17.49
2022-07-27T02:21:07.628Z,17.49
2022-07-27T02:22:07.604Z,17.48
2022-07-27T02:23:07.606Z,17.46
2022-07-27T02:24:07.591Z,17.44
2022-07-27T02:25:07.568Z,17.44
2022-07-27T02:26:07.555Z,17.42
2022-07-27T02:27:07.544Z,17.41
2022-07-27T02:28:07.539Z,17.41
2022-07-27T02:29:07.549Z,17.39
2022-07-27T02:30:07.522Z,17.41
2022-07-27T02:31:07.501Z,17.39
2022-07-27T02:32:07.491Z,17.38
2022-07-27T02:33:07.549Z,17.36
2022-07-27T02:34:07.475Z,17.34
2022-07-27T02:35:18.346Z,17.31
2022-07-27T02:36:08.443Z,17.33
2022-07-27T02:37:07.444Z,17.34
2022-07-27T02:38:07.433Z,17.31
2022-07-27T02:39:07.408Z,17.31
2022-07-27T02:40:07.424Z,17.33
2022-07-27T02:41:07.387Z,17.34
2022-07-27T02:42:07.380Z,17.31
2022-07-27T02:43:07.368Z,17.31
2022-07-27T02:44:07.355Z,17.30
2022-07-27T02:45:07.340Z,17.29
2022-07-27T02:46:07.433Z,17.26
2022-07-27T02:47:07.316Z,17.26
2022-07-27T02:48:08.502Z,17.24
2022-07-27T02:49:07.386Z,17.23
2022-07-27T02:50:07.282Z,17.24
2022-07-27T02:51:07.281Z,17.24
2022-07-27T02:52:07.320Z,17.26
2022-07-27T02:53:07.248Z,17.24
2022-07-27T02:54:07.247Z,17.23
2022-07-27T02:55:07.218Z,17.22
2022-07-27T02:56:07.233Z,17.20
2022-07-27T02:57:07.200Z,17.22
2022-07-27T02:58:07.207Z,17.20
2022-07-27T02:59:07.185Z,17.19
2022-07-27T03:00:07.188Z,17.19
2022-07-27T03:01:07.240Z,17.16
2022-07-27T03:02:07.148Z,17.14
2022-07-27T03:03:07.137Z,17.15
2022-07-27T03:04:07.194Z,17.12
2022-07-27T03:05:07.111Z,17.12
2022-07-27T03:06:07.103Z,17.11
2022-07-27T03:07:07.089Z,17.12
2022-07-27T03:08:07.090Z,17.09
2022-07-27T03:09:07.071Z,17.09
2022-07-27T03:10:07.084Z,17.11
2022-07-27T03:11:07.039Z,17.11
2022-07-27T03:12:07.031Z,17.09
2022-07-27T03:13:07.027Z,17.09
2022-07-27T03:14:07.013Z,17.11
2022-07-27T03:15:06.997Z,17.09
2022-07-27T03:16:07.087Z,17.09
2022-07-27T03:17:06.981Z,17.11
2022-07-27T03:18:06.979Z,17.11
2022-07-27T03:19:06.949Z,17.09
2022-07-27T03:20:08.061Z,17.09
2022-07-27T03:21:06.941Z,17.09
2022-07-27T03:22:06.940Z,17.09
2022-07-27T03:23:06.901Z,17.08
2022-07-27T03:24:06.902Z,17.08
2022-07-27T03:25:06.899Z,17.09
2022-07-27T03:26:06.880Z,17.08
2022-07-27T03:27:06.884Z,17.09
2022-07-27T03:28:06.850Z,17.08
2022-07-27T03:29:06.834Z,17.06
2022-07-27T03:30:06.832Z,17.06
2022-07-27T03:31:06.876Z,17.06
2022-07-27T03:32:06.809Z,17.06
2022-07-27T03:33:06.824Z,17.06
2022-07-27T03:34:06.780Z,17.05
2022-07-27T03:35:06.770Z,17.06
2022-07-27T03:36:06.762Z,17.06
2022-07-27T03:37:06.748Z,17.05
2022-07-27T03:38:06.743Z,17.05
2022-07-27T03:39:06.749Z,17.04
2022-07-27T03:40:06.712Z,17.04
2022-07-27T03:41:06.701Z,17.04
2022-07-27T03:42:06.704Z,17.04
2022-07-27T03:43:06.685Z,17.02
2022-07-27T03:44:06.674Z,17.01
2022-07-27T03:45:06.893Z,17.01
2022-07-27T03:46:06.689Z,16.96
2022-07-27T03:47:06.633Z,16.96
2022-07-27T03:48:06.635Z,16.96
2022-07-27T03:49:14.310Z,16.94
2022-07-27T03:50:07.622Z,16.94
2022-07-27T03:51:06.585Z,16.94
2022-07-27T03:52:06.581Z,16.94
2022-07-27T03:53:06.563Z,16.93
2022-07-27T03:54:06.554Z,16.93
2022-07-27T03:55:06.542Z,16.91
2022-07-27T03:56:06.555Z,16.89
2022-07-27T03:57:06.513Z,16.87
2022-07-27T03:58:06.522Z,16.86
2022-07-27T03:59:06.501Z,16.84
2022-07-27T04:00:06.497Z,16.84
2022-07-27T04:01:06.516Z,16.84
2022-07-27T04:02:06.527Z,16.81
2022-07-27T04:03:06.462Z,16.83
2022-07-27T04:04:06.445Z,16.79
2022-07-27T04:05:06.439Z,16.81
2022-07-27T04:06:06.423Z,16.79
2022-07-27T04:07:06.404Z,16.81
2022-07-27T04:08:06.414Z,16.81
2022-07-27T04:09:07.980Z,16.81
2022-07-27T04:10:06.377Z,16.79
2022-07-27T04:11:06.365Z,16.79
2022-07-27T04:12:06.367Z,16.78
2022-07-27T04:13:06.365Z,16.79
2022-07-27T04:14:06.336Z,16.76
2022-07-27T04:15:06.325Z,16.75
2022-07-27T04:16:06.313Z,16.76
2022-07-27T04:17:06.381Z,16.78
2022-07-27T04:18:06.289Z,16.79
2022-07-27T04:19:06.294Z,16.83
2022-07-27T04:20:06.300Z,16.81
2022-07-27T04:21:06.272Z,16.81
2022-07-27T04:22:06.244Z,16.83
2022-07-27T04:23:06.228Z,16.81
2022-07-27T04:24:06.229Z,16.81
2022-07-27T04:25:06.217Z,16.83
2022-07-27T04:26:06.205Z,16.84
2022-07-27T04:27:06.186Z,16.83
2022-07-27T04:28:06.176Z,16.84
2022-07-27T04:29:06.166Z,16.84
2022-07-27T04:30:09.521Z,16.84
2022-07-27T04:31:06.203Z,16.86
2022-07-27T04:32:06.137Z,16.90
2022-07-27T04:33:06.116Z,16.87
2022-07-27T04:34:06.115Z,16.89
2022-07-27T04:35:06.102Z,16.87
2022-07-27T04:36:06.107Z,16.87
2022-07-27T04:37:06.080Z,16.84
2022-07-27T04:38:06.064Z,16.83
2022-07-27T04:39:06.047Z,16.89
2022-07-27T04:40:06.037Z,16.89
2022-07-27T04:41:06.060Z,16.90
2022-07-27T04:42:06.020Z,16.93
2022-07-27T04:43:06.012Z,16.93
2022-07-27T04:44:05.999Z,16.96
2022-07-27T04:45:05.990Z,16.94
2022-07-27T04:46:06.177Z,16.96
2022-07-27T04:47:06.045Z,16.97
2022-07-27T04:48:05.947Z,16.99
2022-07-27T04:49:05.988Z,17.01
2022-07-27T04:50:05.928Z,17.04
2022-07-27T04:51:05.920Z,17.05
2022-07-27T04:52:05.911Z,17.06
2022-07-27T04:53:05.938Z,17.06
2022-07-27T04:54:05.881Z,17.11
2022-07-27T04:55:05.873Z,17.14
2022-07-27T04:56:05.869Z,17.19
2022-07-27T04:57:05.848Z,17.20
2022-07-27T04:58:05.843Z,17.23
2022-07-27T04:59:05.841Z,17.20
2022-07-27T05:00:05.829Z,17.23
2022-07-27T05:01:05.845Z,17.26
2022-07-27T05:02:05.801Z,17.29
2022-07-27T05:03:05.771Z,17.34
2022-07-27T05:04:05.902Z,17.39
2022-07-27T05:05:05.784Z,17.45
2022-07-27T05:06:05.738Z,17.56
2022-07-27T05:07:05.733Z,17.63
2022-07-27T05:08:05.729Z,17.68
2022-07-27T05:09:05.720Z,17.74
2022-07-27T05:10:05.704Z,17.80
2022-07-27T05:11:05.707Z,17.80
2022-07-27T05:12:05.684Z,17.82
2022-07-27T05:13:07.568Z,17.86
2022-07-27T05:14:05.652Z,17.85
2022-07-27T05:15:05.641Z,17.80
2022-07-27T05:16:05.669Z,17.85
2022-07-27T05:17:05.648Z,17.85
2022-07-27T05:18:05.624Z,17.82
2022-07-27T05:19:05.591Z,17.82
2022-07-27T05:20:05.580Z,17.79
2022-07-27T05:21:05.575Z,17.82
2022-07-27T05:22:05.572Z,17.86
2022-07-27T05:23:05.570Z,17.87
2022-07-27T05:24:05.543Z,17.95
2022-07-27T05:25:05.532Z,17.94
2022-07-27T05:26:05.522Z,17.85
2022-07-27T05:27:05.513Z,17.78
2022-07-27T05:28:05.503Z,17.79
2022-07-27T05:29:05.567Z,17.80
2022-07-27T05:30:05.481Z,17.82
2022-07-27T05:31:05.511Z,17.76
2022-07-27T05:32:05.498Z,17.82
2022-07-27T05:33:05.447Z,17.89
2022-07-27T05:34:05.433Z,17.95
2022-07-27T05:35:05.553Z,18.00
2022-07-27T05:36:07.716Z,17.95
2022-07-27T05:37:05.393Z,17.87
2022-07-27T05:38:05.685Z,17.87
2022-07-27T05:39:07.246Z,17.94
2022-07-27T05:40:06.401Z,18.03
2022-07-27T05:41:06.334Z,18.08
2022-07-27T05:42:05.397Z,18.08
2022-07-27T05:43:05.338Z,17.98
2022-07-27T05:44:05.325Z,17.95
2022-07-27T05:45:05.310Z,17.95
2022-07-27T05:46:05.360Z,17.95
2022-07-27T05:47:06.029Z,17.95
2022-07-27T05:48:05.276Z,17.86
2022-07-27T05:49:05.317Z,17.78
2022-07-27T05:50:05.255Z,17.76
2022-07-27T05:51:05.237Z,17.72
2022-07-27T05:52:05.272Z,17.72
2022-07-27T05:53:05.225Z,17.74
2022-07-27T05:54:05.215Z,17.70
2022-07-27T05:55:05.204Z,17.70
2022-07-27T05:56:05.185Z,17.74
2022-07-27T05:57:05.225Z,17.78
2022-07-27T05:58:05.204Z,17.72
2022-07-27T05:59:07.236Z,17.78
2022-07-27T06:00:05.150Z,17.72
2022-07-27T06:01:05.244Z,17.72
2022-07-27T06:02:05.127Z,17.78
2022-07-27T06:03:05.180Z,17.78
2022-07-27T06:04:05.150Z,17.78
2022-07-27T06:05:05.087Z,17.80
2022-07-27T06:06:05.077Z,17.82
2022-07-27T06:07:05.068Z,17.79
2022-07-27T06:08:05.062Z,17.86
2022-07-27T06:09:05.058Z,17.92
2022-07-27T06:10:05.044Z,17.97
2022-07-27T06:11:05.019Z,17.95
2022-07-27T06:12:05.007Z,17.97
2022-07-27T06:13:05.005Z,18.00
2022-07-27T06:14:04.987Z,17.90
2022-07-27T06:15:05.207Z,17.83
2022-07-27T06:16:04.994Z,17.85
2022-07-27T06:17:04.959Z,17.83
2022-07-27T06:18:04.955Z,17.83
2022-07-27T06:19:04.949Z,17.85
2022-07-27T06:20:04.947Z,17.87
2022-07-27T06:21:04.917Z,17.86
2022-07-27T06:22:04.929Z,17.86
2022-07-27T06:23:07.881Z,17.89
2022-07-27T06:24:04.878Z,17.94
2022-07-27T06:25:04.868Z,18.04
2022-07-27T06:26:05.007Z,18.15
2022-07-27T06:27:04.852Z,18.22
2022-07-27T06:28:04.869Z,18.35
2022-07-27T06:29:09.972Z,18.52
2022-07-27T06:30:05.819Z,18.70
2022-07-27T06:31:04.833Z,18.74
2022-07-27T06:32:04.867Z,18.78
2022-07-27T06:33:04.946Z,18.81
2022-07-27T06:34:08.231Z,18.86
2022-07-27T06:35:05.760Z,18.95
2022-07-27T06:36:04.740Z,18.74
2022-07-27T06:37:04.760Z,18.71
2022-07-27T06:38:04.721Z,18.78
2022-07-27T06:39:04.720Z,18.86
2022-07-27T06:40:04.699Z,18.89
2022-07-27T06:41:04.694Z,19.00
2022-07-27T06:42:04.681Z,19.11
2022-07-27T06:43:04.705Z,19.30
2022-07-27T06:44:04.663Z,19.48
2022-07-27T06:45:04.656Z,19.48
2022-07-27T06:46:04.631Z,19.56
2022-07-27T06:47:04.673Z,19.67
2022-07-27T06:48:04.625Z,19.55
2022-07-27T06:49:04.722Z,19.69
2022-07-27T06:50:04.592Z,19.45
2022-07-27T06:51:04.580Z,19.27
2022-07-27T06:52:04.564Z,19.30
2022-07-27T06:53:04.552Z,19.47
2022-07-27T06:54:04.544Z,19.79
2022-07-27T06:55:04.562Z,20.13
2022-07-27T06:56:04.514Z,20.37
2022-07-27T06:57:04.519Z,20.55
2022-07-27T06:58:04.508Z,20.82
2022-07-27T06:59:04.493Z,20.92
2022-07-27T07:00:04.473Z,21.27
2022-07-27T07:01:04.572Z,21.70
2022-07-27T07:02:04.455Z,21.98
2022-07-27T07:03:04.453Z,22.47
2022-07-27T07:04:04.519Z,22.84
2022-07-27T07:05:04.423Z,23.41
2022-07-27T07:06:04.404Z,23.41
2022-07-27T07:07:07.312Z,22.78
2022-07-27T07:08:04.389Z,21.91
2022-07-27T07:09:04.384Z,21.29
2022-07-27T07:10:04.376Z,21.05
2022-07-27T07:11:04.367Z,21.22
2022-07-27T07:12:04.351Z,22.45
2022-07-27T07:13:04.365Z,22.48
2022-07-27T07:14:04.330Z,21.70
2022-07-27T07:15:04.316Z,21.98
2022-07-27T07:16:04.326Z,22.11
2022-07-27T07:17:04.304Z,22.93
2022-07-27T07:18:04.277Z,23.54
2022-07-27T07:19:04.288Z,23.37
2022-07-27T07:20:04.259Z,23.50
2022-07-27T07:21:04.248Z,23.13
2022-07-27T07:22:04.236Z,23.31
2022-07-27T07:23:04.243Z,23.63
2022-07-27T07:24:04.208Z,23.48
2022-07-27T07:25:04.232Z,23.09
2022-07-27T07:26:04.197Z,23.74
2022-07-27T07:27:04.186Z,23.73
2022-07-27T07:28:04.171Z,23.44
2022-07-27T07:29:04.169Z,23.08
2022-07-27T07:30:04.150Z,23.24
2022-07-27T07:31:04.230Z,23.40
2022-07-27T07:32:04.135Z,23.76
2022-07-27T07:33:04.120Z,24.42
2022-07-27T07:34:04.112Z,25.01
2022-07-27T07:35:04.091Z,25.28
2022-07-27T07:36:12.070Z,25.90
2022-07-27T07:37:05.080Z,25.87
2022-07-27T07:38:04.062Z,25.43
2022-07-27T07:39:04.056Z,25.10
2022-07-27T07:40:25.247Z,25.04
2022-07-27T07:41:05.071Z,24.50
2022-07-27T07:42:04.032Z,24.14
2022-07-27T07:43:04.013Z,23.76
2022-07-27T07:44:04.010Z,23.65
2022-07-27T07:45:03.999Z,23.96
2022-07-27T07:46:04.059Z,24.17
2022-07-27T07:47:04.102Z,24.86
2022-07-27T07:48:03.969Z,25.14
2022-07-27T07:49:04.033Z,25.51
2022-07-27T07:50:03.939Z,25.23
2022-07-27T07:51:03.935Z,25.32
2022-07-27T07:52:03.917Z,25.83
2022-07-27T07:53:03.935Z,26.03
2022-07-27T07:54:03.906Z,25.91
2022-07-27T07:55:03.923Z,25.68
2022-07-27T07:56:03.877Z,25.51
2022-07-27T07:57:03.874Z,25.29
2022-07-27T07:58:03.862Z,25.53
2022-07-27T07:59:03.866Z,25.62
2022-07-27T08:00:03.849Z,25.59
2022-07-27T08:01:03.819Z,25.17
2022-07-27T08:02:03.896Z,25.08
2022-07-27T08:03:03.935Z,25.23
2022-07-27T08:04:03.787Z,25.38
2022-07-27T08:05:03.799Z,25.41
2022-07-27T08:06:03.771Z,25.72
2022-07-27T08:07:03.759Z,25.75
2022-07-27T08:08:03.743Z,25.47
2022-07-27T08:09:03.731Z,24.95
2022-07-27T08:10:03.743Z,25.31
2022-07-27T08:11:03.712Z,25.65
2022-07-27T08:12:03.698Z,25.69
2022-07-27T08:13:03.690Z,26.28
2022-07-27T08:14:03.674Z,26.23
2022-07-27T08:15:03.662Z,25.65
2022-07-27T08:16:03.723Z,24.95
2022-07-27T08:17:03.653Z,24.99
2022-07-27T08:18:03.632Z,24.77
2022-07-27T08:19:03.625Z,24.76
2022-07-27T08:20:03.621Z,24.68
2022-07-27T08:21:03.603Z,24.95
2022-07-27T08:22:03.600Z,24.95
2022-07-27T08:23:03.575Z,25.01
2022-07-27T08:24:03.575Z,24.92
2022-07-27T08:25:03.565Z,24.63
2022-07-27T08:26:07.700Z,24.61
2022-07-27T08:27:03.535Z,23.91
2022-07-27T08:28:03.537Z,23.17
2022-07-27T08:29:13.407Z,23.31
2022-07-27T08:30:04.496Z,23.78
2022-07-27T08:31:14.539Z,24.43
2022-07-27T08:32:05.968Z,24.57
2022-07-27T08:33:03.471Z,24.93
2022-07-27T08:34:03.457Z,25.28
2022-07-27T08:35:03.450Z,25.91
2022-07-27T08:36:03.437Z,26.62
2022-07-27T08:37:03.432Z,26.66
2022-07-27T08:38:03.441Z,25.46
2022-07-27T08:39:03.409Z,24.03
2022-07-27T08:40:39.086Z,23.61
2022-07-27T08:41:04.389Z,24.11
2022-07-27T08:42:03.372Z,24.18
2022-07-27T08:43:03.388Z,24.84
2022-07-27T08:44:03.360Z,25.81
2022-07-27T08:45:03.349Z,26.59
2022-07-27T08:46:03.432Z,26.80
2022-07-27T08:47:03.392Z,26.56
2022-07-27T08:48:03.325Z,26.13
2022-07-27T08:49:10.706Z,25.80
2022-07-27T08:50:03.284Z,25.91
2022-07-27T08:51:03.277Z,25.66
2022-07-27T08:52:03.264Z,25.60
2022-07-27T08:53:03.267Z,24.86
2022-07-27T08:54:03.245Z,23.95
2022-07-27T08:55:03.255Z,23.40
2022-07-27T08:56:03.216Z,22.59
2022-07-27T08:57:03.209Z,22.20
2022-07-27T08:58:03.914Z,22.08
2022-07-27T08:59:03.195Z,23.10
2022-07-27T09:00:03.177Z,23.99
2022-07-27T09:01:03.189Z,24.70
2022-07-27T09:02:03.644Z,25.55
2022-07-27T09:03:03.294Z,25.41
2022-07-27T09:04:03.137Z,24.91
2022-07-27T09:05:03.126Z,24.78
2022-07-27T09:06:03.108Z,25.25
2022-07-27T09:07:03.132Z,25.26
2022-07-27T09:08:03.089Z,25.10
2022-07-27T09:09:03.079Z,25.26
2022-07-27T09:10:03.075Z,25.78
2022-07-27T09:11:03.059Z,25.46
2022-07-27T09:12:03.054Z,25.08
2022-07-27T09:13:03.060Z,24.78
2022-07-27T09:14:03.023Z,24.43
2022-07-27T09:15:03.020Z,24.08
2022-07-27T09:16:19.966Z,23.73
2022-07-27T09:17:46.867Z,23.54
2022-07-27T09:18:04.033Z,22.98
2022-07-27T09:19:02.981Z,22.70
2022-07-27T09:20:02.961Z,23.08
2022-07-27T09:21:02.952Z,22.60
2022-07-27T09:22:02.941Z,22.29
2022-07-27T09:23:02.933Z,21.95
2022-07-27T09:24:02.941Z,21.60
2022-07-27T09:25:02.936Z,21.67
2022-07-27T09:26:08.573Z,22.44
2022-07-27T09:27:03.919Z,23.00
2022-07-27T09:28:02.874Z,23.58
2022-07-27T09:29:02.870Z,23.99
2022-07-27T09:30:02.872Z,24.40
2022-07-27T09:31:02.890Z,24.65
2022-07-27T09:32:02.837Z,24.81
2022-07-27T09:33:02.826Z,25.26
2022-07-27T09:34:02.888Z,25.68
2022-07-27T09:35:02.894Z,25.72
2022-07-27T09:36:02.791Z,25.65
2022-07-27T09:37:02.784Z,25.63
2022-07-27T09:38:02.775Z,26.06
2022-07-27T09:39:03.222Z,26.45
2022-07-27T09:40:02.754Z,26.83
2022-07-27T09:41:02.763Z,26.73
2022-07-27T09:42:03.150Z,26.29
2022-07-27T09:43:14.826Z,25.53
2022-07-27T09:44:31.984Z,25.18
2022-07-27T09:45:03.696Z,25.25
2022-07-27T09:46:02.732Z,25.63
2022-07-27T09:47:02.689Z,25.75
2022-07-27T09:48:02.660Z,25.68
2022-07-27T09:49:02.684Z,25.72
2022-07-27T09:50:02.651Z,25.33
2022-07-27T09:51:05.520Z,24.74
2022-07-27T09:52:03.796Z,24.29
2022-07-27T09:53:19.753Z,23.93
2022-07-27T09:54:03.600Z,23.59
2022-07-27T09:55:02.608Z,23.61
2022-07-27T09:56:02.582Z,24.14
2022-07-27T09:57:02.576Z,24.01
2022-07-27T09:58:02.580Z,24.13
2022-07-27T09:59:02.552Z,24.35
2022-07-27T10:00:02.532Z,24.29
2022-07-27T10:01:02.533Z,24.69
2022-07-27T10:02:02.573Z,25.06
2022-07-27T10:03:02.524Z,24.93
2022-07-27T10:04:02.541Z,24.70
2022-07-27T10:05:02.565Z,24.74
2022-07-27T10:06:02.465Z,24.60
2022-07-27T10:07:04.567Z,24.54
2022-07-27T10:08:02.453Z,24.39
2022-07-27T10:09:02.454Z,23.99
2022-07-27T10:10:02.426Z,24.11
2022-07-27T10:11:04.120Z,24.51
2022-07-27T10:12:02.424Z,24.92
2022-07-27T10:13:02.393Z,25.18
2022-07-27T10:14:02.379Z,25.41
2022-07-27T10:15:02.423Z,25.07
2022-07-27T10:16:02.423Z,24.99
2022-07-27T10:17:02.350Z,24.86
2022-07-27T10:18:06.700Z,24.65
2022-07-27T10:19:03.329Z,24.69
2022-07-27T10:20:03.329Z,24.47
2022-07-27T10:21:02.298Z,23.98
2022-07-27T10:22:02.289Z,23.23
2022-07-27T10:23:02.278Z,22.73
2022-07-27T10:24:02.267Z,22.35
2022-07-27T10:25:02.313Z,22.28
2022-07-27T10:26:02.260Z,22.48
2022-07-27T10:27:02.255Z,22.66
2022-07-27T10:28:02.220Z,22.81
2022-07-27T10:29:02.212Z,22.73
2022-07-27T10:30:02.200Z,23.02
2022-07-27T10:31:02.252Z,22.98
2022-07-27T10:32:02.202Z,23.17
2022-07-27T10:33:02.169Z,23.39
2022-07-27T10:34:02.159Z,23.71
2022-07-27T10:35:02.186Z,23.74
2022-07-27T10:36:02.141Z,23.51
2022-07-27T10:37:02.144Z,23.37
2022-07-27T10:38:02.119Z,23.20
2022-07-27T10:39:02.105Z,23.25
2022-07-27T10:40:02.096Z,23.23
2022-07-27T10:41:02.082Z,23.23
2022-07-27T10:42:02.074Z,22.88
2022-07-27T10:43:02.083Z,22.63
2022-07-27T10:44:02.052Z,22.72
2022-07-27T10:45:02.090Z,22.90
2022-07-27T10:46:03.038Z,23.17
2022-07-27T10:47:02.015Z,23.44
2022-07-27T10:48:02.013Z,23.50
2022-07-27T10:49:02.055Z,23.73
2022-07-27T10:50:01.989Z,24.10
2022-07-27T10:51:02.002Z,24.51
2022-07-27T10:52:01.966Z,24.70
2022-07-27T10:53:01.954Z,24.73
2022-07-27T10:54:12.566Z,24.91
2022-07-27T10:55:02.984Z,24.76
2022-07-27T10:56:01.925Z,24.35
2022-07-27T10:57:01.906Z,23.81
2022-07-27T10:58:01.898Z,23.41
2022-07-27T10:59:01.887Z,23.05
2022-07-27T11:00:12.368Z,22.98
2022-07-27T11:01:02.936Z,23.02
2022-07-27T11:02:01.990Z,23.06
2022-07-27T11:03:01.847Z,23.10
2022-07-27T11:04:01.897Z,23.32
2022-07-27T11:05:01.818Z,23.68
2022-07-27T11:06:21.752Z,23.80
2022-07-27T11:07:28.054Z,23.81
2022-07-27T11:08:35.629Z,23.86
2022-07-27T11:10:04.469Z,24.02
2022-07-27T11:11:01.749Z,23.95
2022-07-27T11:12:01.769Z,24.01
2022-07-27T11:13:09.815Z,23.87
2022-07-27T11:14:02.728Z,23.58
2022-07-27T11:15:01.709Z,23.47
2022-07-27T11:16:22.984Z,23.56
2022-07-27T11:18:05.028Z,23.81
2022-07-27T11:19:01.809Z,23.92
2022-07-27T11:20:01.661Z,23.92
2022-07-27T11:21:04.608Z,23.91
2022-07-27T11:22:04.661Z,23.96
2022-07-27T11:24:02.631Z,23.88
2022-07-27T11:25:01.602Z,23.68
2022-07-27T11:26:01.598Z,23.65
2022-07-27T11:27:01.582Z,23.51
2022-07-27T11:28:02.573Z,23.63
2022-07-27T11:29:01.564Z,23.80
2022-07-27T11:30:01.573Z,23.96
2022-07-27T11:31:03.653Z,24.23
2022-07-27T11:32:01.579Z,24.55
2022-07-27T11:33:01.513Z,24.65
2022-07-27T11:34:01.506Z,24.76
2022-07-27T11:35:01.493Z,24.95
2022-07-27T11:36:01.515Z,25.18
2022-07-27T11:37:01.475Z,25.36
2022-07-27T11:38:01.478Z,25.47
2022-07-27T11:39:01.445Z,25.38
2022-07-27T11:40:04.150Z,25.35
2022-07-27T11:41:15.319Z,25.48
2022-07-27T11:42:11.689Z,25.68
2022-07-27T11:43:02.406Z,25.90
2022-07-27T11:44:01.396Z,26.06
2022-07-27T11:45:01.378Z,25.98
2022-07-27T11:46:01.423Z,25.53
2022-07-27T11:47:01.879Z,25.23
2022-07-27T11:48:01.347Z,24.80
2022-07-27T11:49:07.115Z,24.26
2022-07-27T11:50:02.379Z,23.88
2022-07-27T11:51:01.307Z,23.66
2022-07-27T11:52:01.308Z,23.87
2022-07-27T11:53:01.925Z,24.16
2022-07-27T11:54:01.278Z,24.38
2022-07-27T11:55:01.268Z,24.54
2022-07-27T11:56:01.259Z,24.58
2022-07-27T11:57:01.239Z,24.68
2022-07-27T11:58:01.238Z,24.63
2022-07-27T11:59:01.630Z,24.45
2022-07-27T12:00:01.212Z,24.39
2022-07-27T12:01:01.200Z,24.39
2022-07-27T12:02:01.263Z,24.54
2022-07-27T12:03:01.205Z,24.48
2022-07-27T12:04:01.194Z,24.32
2022-07-27T12:05:03.255Z,24.21
2022-07-27T12:06:01.140Z,24.16
2022-07-27T12:07:01.135Z,24.18
2022-07-27T12:08:01.121Z,24.30
2022-07-27T12:09:01.111Z,24.33
2022-07-27T12:10:01.122Z,24.30
2022-07-27T12:11:01.087Z,24.32
2022-07-27T12:12:01.081Z,24.51
2022-07-27T12:13:01.063Z,24.51
2022-07-27T12:14:01.083Z,24.63
2022-07-27T12:15:01.040Z,24.69
2022-07-27T12:16:01.054Z,24.76
2022-07-27T12:17:01.089Z,24.69
2022-07-27T12:18:01.007Z,24.61
2022-07-27T12:19:00.993Z,24.55
2022-07-27T12:20:00.986Z,24.38
2022-07-27T12:21:00.975Z,24.36
2022-07-27T12:22:00.984Z,24.24
2022-07-27T12:23:00.955Z,24.18
2022-07-27T12:24:00.949Z,24.23
2022-07-27T12:25:00.928Z,24.45
2022-07-27T12:26:00.927Z,24.57
2022-07-27T12:27:05.943Z,24.51
2022-07-27T12:28:01.906Z,24.35
2022-07-27T12:29:00.886Z,24.29
2022-07-27T12:30:00.879Z,24.24
2022-07-27T12:31:00.899Z,24.29
2022-07-27T12:32:00.856Z,24.29
2022-07-27T12:33:00.868Z,24.26
2022-07-27T12:34:06.106Z,24.35
2022-07-27T12:35:01.818Z,24.40
2022-07-27T12:36:00.808Z,24.53
2022-07-27T12:37:00.810Z,24.73
2022-07-27T12:38:00.788Z,24.91
2022-07-27T12:39:00.791Z,24.57
2022-07-27T12:40:00.766Z,24.40
2022-07-27T12:41:01.337Z,24.38
2022-07-27T12:42:00.751Z,24.36
2022-07-27T12:43:00.730Z,24.48
2022-07-27T12:44:00.749Z,24.54
2022-07-27T12:45:00.710Z,24.36
2022-07-27T12:46:00.774Z,24.13
2022-07-27T12:47:00.690Z,24.02
2022-07-27T12:48:00.680Z,24.03
2022-07-27T12:49:00.715Z,23.86
2022-07-27T12:50:00.680Z,23.56
2022-07-27T12:51:00.642Z,23.54
2022-07-27T12:52:00.631Z,23.55
2022-07-27T12:53:00.619Z,23.61
2022-07-27T12:54:00.611Z,23.73
2022-07-27T12:55:00.600Z,23.74